createdAt,value
2022-08-31T00:02:01.449Z,8.60
2022-08-31T00:04:29.522Z,6.63
2022-08-31T00:06:56.416Z,7.10
2022-08-31T00:09:23.348Z,7.27
2022-08-31T00:11:50.175Z,7.27
2022-08-31T00:14:18.300Z,10.27
2022-08-31T00:16:46.269Z,7.67
2022-08-31T00:19:15.203Z,6.87
2022-08-31T00:21:44.631Z,7.47
2022-08-31T00:24:12.362Z,8.00
2022-08-31T00:26:40.301Z,6.53
2022-08-31T00:29:07.887Z,6.30
2022-08-31T00:31:34.797Z,7.63
2022-08-31T00:34:04.190Z,6.70
2022-08-31T00:36:31.069Z,8.87
2022-08-31T00:38:58.082Z,7.37
2022-08-31T00:41:27.968Z,7.80
2022-08-31T00:43:56.422Z,6.70
2022-08-31T00:46:36.243Z,9.00
2022-08-31T00:49:13.786Z,8.43
2022-08-31T00:52:00.891Z,6.53
2022-08-31T00:54:32.315Z,6.97
2022-08-31T00:56:59.695Z,7.40
2022-08-31T00:59:27.750Z,7.60
2022-08-31T01:01:55.029Z,9.33
2022-08-31T01:04:22.295Z,8.10
2022-08-31T01:06:51.448Z,7.33
2022-08-31T01:09:22.153Z,8.03
2022-08-31T01:11:50.636Z,8.77
2022-08-31T01:14:17.687Z,7.00
2022-08-31T01:16:48.626Z,7.43
2022-08-31T01:19:34.520Z,8.40
2022-08-31T01:22:15.806Z,7.30
2022-08-31T01:24:46.342Z,7.70
2022-08-31T01:27:16.559Z,9.53
2022-08-31T01:29:43.407Z,7.87
2022-08-31T01:32:10.337Z,8.90
2022-08-31T01:34:37.290Z,8.60
2022-08-31T01:37:04.658Z,8.57
2022-08-31T01:39:31.747Z,7.07
2022-08-31T01:41:59.013Z,9.40
2022-08-31T01:44:27.648Z,7.23
2022-08-31T01:46:55.580Z,7.83
2022-08-31T01:49:23.533Z,7.40
2022-08-31T01:51:51.494Z,8.33
2022-08-31T01:54:19.541Z,7.33
2022-08-31T01:56:48.065Z,7.33
2022-08-31T01:59:23.081Z,8.10
2022-08-31T02:02:06.765Z,9.73
2022-08-31T02:04:34.130Z,8.60
2022-08-31T02:07:01.662Z,7.90
2022-08-31T02:09:29.279Z,7.27
2022-08-31T02:11:56.458Z,7.40
2022-08-31T02:14:23.466Z,8.30
2022-08-31T02:16:50.504Z,7.53
2022-08-31T02:19:17.551Z,7.30
2022-08-31T02:21:44.458Z,7.93
2022-08-31T02:24:12.373Z,7.93
2022-08-31T02:26:40.294Z,7.40
2022-08-31T02:29:08.094Z,6.57
2022-08-31T02:31:35.146Z,9.30
2022-08-31T02:34:02.160Z,8.53
2022-08-31T02:36:29.306Z,8.40
2022-08-31T02:38:57.080Z,7.87
2022-08-31T02:41:24.427Z,6.83
2022-08-31T02:43:51.420Z,7.43
2022-08-31T02:46:19.193Z,7.43
2022-08-31T02:49:01.721Z,7.20
2022-08-31T02:51:29.163Z,7.20
2022-08-31T02:53:56.124Z,7.53
2022-08-31T02:56:23.886Z,7.87
2022-08-31T02:58:55.236Z,7.57
2022-08-31T03:01:25.030Z,11.97
2022-08-31T03:03:52.419Z,8.63
2022-08-31T03:06:20.661Z,8.87
2022-08-31T03:08:47.926Z,10.63
2022-08-31T03:11:18.605Z,8.30
2022-08-31T03:13:46.093Z,8.73
2022-08-31T03:16:15.153Z,7.80
2022-08-31T03:18:42.685Z,8.97
2022-08-31T03:21:09.644Z,8.43
2022-08-31T03:23:37.439Z,7.60
2022-08-31T03:26:05.856Z,8.83
2022-08-31T03:28:39.059Z,10.30
2022-08-31T03:31:26.103Z,11.50
2022-08-31T03:33:53.666Z,9.37
2022-08-31T03:36:20.547Z,9.17
2022-08-31T03:38:47.633Z,9.47
2022-08-31T03:41:18.730Z,8.00
2022-08-31T03:43:45.690Z,8.47
2022-08-31T03:46:12.898Z,9.57
2022-08-31T03:48:42.979Z,9.27
2022-08-31T03:51:10.097Z,9.27
2022-08-31T03:53:37.257Z,8.53
2022-08-31T03:56:08.726Z,9.20
2022-08-31T03:58:40.636Z,7.43
2022-08-31T04:01:10.769Z,8.20
2022-08-31T04:03:57.912Z,7.47
2022-08-31T04:06:50.461Z,8.13
2022-08-31T04:09:35.982Z,8.73
2022-08-31T04:12:21.422Z,8.67
2022-08-31T04:15:16.376Z,8.90
2022-08-31T04:18:20.687Z,9.07
2022-08-31T04:20:49.007Z,7.60
2022-08-31T04:23:16.041Z,10.10
2022-08-31T04:25:47.926Z,7.90
2022-08-31T04:28:15.031Z,8.80
2022-08-31T04:30:43.559Z,7.23
2022-08-31T04:33:15.519Z,8.97
2022-08-31T04:35:43.406Z,8.37
2022-08-31T04:38:12.240Z,8.67
2022-08-31T04:40:49.251Z,10.10
2022-08-31T04:43:20.172Z,8.93
2022-08-31T04:45:52.088Z,9.10
2022-08-31T04:48:19.517Z,9.80
2022-08-31T04:50:49.396Z,7.57
2022-08-31T04:53:17.123Z,7.77
2022-08-31T04:55:44.288Z,8.53
2022-08-31T04:58:13.898Z,8.57
2022-08-31T05:00:43.946Z,7.60
2022-08-31T05:03:23.183Z,7.80
2022-08-31T05:05:53.759Z,12.13
2022-08-31T05:08:21.219Z,8.53
2022-08-31T05:10:50.838Z,8.80
2022-08-31T05:13:17.994Z,8.03
2022-08-31T05:15:45.750Z,9.90
2022-08-31T05:18:18.201Z,8.10
2022-08-31T05:20:54.732Z,7.67
2022-08-31T05:23:21.739Z,10.37
2022-08-31T05:25:49.059Z,8.57
2022-08-31T05:28:16.814Z,8.63
2022-08-31T05:30:47.697Z,28.17
2022-08-31T05:33:35.112Z,31.67
2022-08-31T05:36:03.431Z,19.80
2022-08-31T05:38:31.381Z,12.23
2022-08-31T05:40:59.604Z,8.37
2022-08-31T05:43:30.281Z,9.73
2022-08-31T05:45:58.339Z,10.23
2022-08-31T05:48:29.836Z,9.00
2022-08-31T05:51:02.118Z,8.57
2022-08-31T05:53:29.621Z,9.83
2022-08-31T05:56:10.641Z,10.83
2022-08-31T05:58:39.776Z,15.13
2022-08-31T06:01:24.216Z,16.80
2022-08-31T06:04:28.356Z,13.67
2022-08-31T06:06:58.511Z,10.77
2022-08-31T06:09:31.072Z,9.90
2022-08-31T06:11:58.205Z,11.10
2022-08-31T06:14:27.106Z,13.30
2022-08-31T06:16:56.800Z,16.83
2022-08-31T06:19:24.503Z,15.17
2022-08-31T06:21:53.350Z,12.07
2022-08-31T06:24:25.949Z,12.57
2022-08-31T06:26:58.847Z,11.50
2022-08-31T06:29:34.293Z,10.03
2022-08-31T06:32:08.080Z,8.97
2022-08-31T06:34:40.197Z,13.00
2022-08-31T06:37:18.299Z,9.83
2022-08-31T06:40:05.224Z,11.10
2022-08-31T06:43:05.106Z,10.37
2022-08-31T06:45:48.122Z,9.97
2022-08-31T06:48:36.824Z,11.83
2022-08-31T06:51:06.978Z,9.03
2022-08-31T06:53:36.132Z,9.70
2022-08-31T06:56:25.671Z,9.10
2022-08-31T06:59:18.454Z,8.33
2022-08-31T07:02:08.524Z,9.17
2022-08-31T07:04:38.883Z,10.63
2022-08-31T07:07:07.404Z,8.87
2022-08-31T07:09:37.140Z,8.57
2022-08-31T07:12:07.282Z,11.53
2022-08-31T07:14:35.833Z,9.93
2022-08-31T07:17:03.958Z,8.77
2022-08-31T07:19:32.750Z,8.40
2022-08-31T07:22:02.070Z,11.93
2022-08-31T07:24:31.712Z,10.60
2022-08-31T07:27:04.536Z,9.27
2022-08-31T07:30:00.312Z,8.97
2022-08-31T07:32:32.212Z,10.13
2022-08-31T07:35:01.025Z,13.20
2022-08-31T07:37:50.722Z,10.40
2022-08-31T07:40:44.544Z,9.80
2022-08-31T07:43:15.147Z,9.50
2022-08-31T07:45:43.004Z,9.03
2022-08-31T07:48:15.491Z,11.00
2022-08-31T07:51:13.415Z,12.80
2022-08-31T07:53:51.909Z,10.67
2022-08-31T07:56:34.808Z,9.07
2022-08-31T07:59:23.266Z,10.47
2022-08-31T08:01:55.769Z,9.07
2022-08-31T08:04:26.129Z,10.70
2022-08-31T08:07:34.069Z,9.30
2022-08-31T08:10:30.232Z,9.93
2022-08-31T08:13:33.518Z,8.23
2022-08-31T08:16:08.038Z,7.93
2022-08-31T08:18:49.050Z,9.50
2022-08-31T08:21:20.271Z,8.47
2022-08-31T08:23:47.810Z,10.87
2022-08-31T08:26:53.978Z,9.13
2022-08-31T08:29:45.532Z,10.50
2022-08-31T08:32:19.051Z,9.73
2022-08-31T08:34:46.544Z,9.67
2022-08-31T08:37:14.565Z,12.67
2022-08-31T08:39:43.385Z,9.73
2022-08-31T08:42:14.669Z,8.70
2022-08-31T08:44:44.087Z,9.47
2022-08-31T08:47:18.421Z,10.83
2022-08-31T08:50:03.865Z,9.90
2022-08-31T08:52:36.432Z,10.43
2022-08-31T08:55:07.631Z,10.13
2022-08-31T08:57:39.430Z,10.07
2022-08-31T09:00:11.388Z,10.33
2022-08-31T09:03:10.288Z,9.07
2022-08-31T09:06:24.106Z,8.97
2022-08-31T09:09:29.323Z,10.90
2022-08-31T09:12:44.870Z,10.37
2022-08-31T09:15:47.748Z,10.63
2022-08-31T09:18:30.613Z,9.90
2022-08-31T09:21:22.275Z,9.07
2022-08-31T09:24:02.401Z,10.40
2022-08-31T09:26:51.102Z,9.23
2022-08-31T09:29:33.560Z,10.00
2022-08-31T09:32:07.287Z,11.03
2022-08-31T09:34:37.650Z,9.73
2022-08-31T09:37:22.578Z,10.30
2022-08-31T09:39:52.868Z,10.50
2022-08-31T09:42:31.466Z,12.03
2022-08-31T09:45:30.099Z,9.97
2022-08-31T09:48:01.349Z,11.13
2022-08-31T09:50:45.130Z,9.57
2022-08-31T09:53:34.117Z,9.00
2022-08-31T09:56:18.540Z,9.50
2022-08-31T09:59:02.899Z,8.10
2022-08-31T10:01:44.350Z,8.70
2022-08-31T10:04:21.244Z,9.17
2022-08-31T10:07:12.097Z,9.23
2022-08-31T10:09:48.541Z,10.23
2022-08-31T10:12:40.221Z,8.80
2022-08-31T10:15:15.720Z,10.33
2022-08-31T10:18:11.921Z,9.77
2022-08-31T10:20:46.626Z,9.27
2022-08-31T10:23:25.309Z,9.13
2022-08-31T10:25:59.159Z,11.87
2022-08-31T10:28:41.955Z,10.03
2022-08-31T10:31:21.276Z,9.80
2022-08-31T10:34:18.207Z,9.80
2022-08-31T10:36:50.258Z,8.80
2022-08-31T10:39:37.685Z,11.80
2022-08-31T10:42:11.027Z,9.83
2022-08-31T10:44:58.460Z,12.30
2022-08-31T10:47:32.846Z,9.47
2022-08-31T10:50:05.143Z,9.53
2022-08-31T10:52:43.157Z,8.47
2022-08-31T10:55:29.301Z,7.77
2022-08-31T10:58:09.922Z,8.50
2022-08-31T11:00:58.376Z,10.27
2022-08-31T11:03:37.359Z,9.67
2022-08-31T11:06:23.012Z,9.40
2022-08-31T11:09:25.383Z,12.73
2022-08-31T11:12:07.652Z,8.93
2022-08-31T11:15:09.927Z,8.70
2022-08-31T11:17:59.204Z,9.90
2022-08-31T11:20:33.524Z,10.33
2022-08-31T11:23:26.990Z,8.47
2022-08-31T11:26:07.225Z,10.00
2022-08-31T11:28:46.079Z,11.10
2022-08-31T11:31:23.947Z,9.40
2022-08-31T11:34:16.121Z,11.67
2022-08-31T11:36:51.330Z,10.13
2022-08-31T11:39:36.055Z,9.80
2022-08-31T11:42:27.472Z,8.93
2022-08-31T11:45:27.870Z,10.87
2022-08-31T11:47:55.789Z,8.90
2022-08-31T11:50:22.673Z,9.60
2022-08-31T11:52:55.550Z,11.57
2022-08-31T11:55:27.272Z,8.97
2022-08-31T11:58:07.672Z,9.20
2022-08-31T12:00:46.397Z,10.10
2022-08-31T12:03:50.466Z,9.47
2022-08-31T12:06:29.752Z,10.80
2022-08-31T12:09:23.315Z,10.13
2022-08-31T12:12:09.558Z,8.10
2022-08-31T12:14:58.705Z,8.07
2022-08-31T12:17:52.051Z,8.60
2022-08-31T12:20:29.692Z,10.77
2022-08-31T12:23:39.855Z,7.43
2022-08-31T12:26:24.730Z,8.03
2022-08-31T12:28:57.507Z,8.23
2022-08-31T12:31:24.713Z,7.70
2022-08-31T12:34:02.290Z,7.87
2022-08-31T12:36:33.615Z,6.87
2022-08-31T12:39:09.821Z,9.50
2022-08-31T12:41:51.774Z,7.30
2022-08-31T12:44:35.876Z,8.73
2022-08-31T12:47:28.689Z,7.20
2022-08-31T12:50:18.066Z,6.87
2022-08-31T12:53:16.795Z,6.60
2022-08-31T12:55:59.852Z,7.87
2022-08-31T12:58:46.778Z,10.63
2022-08-31T13:01:20.016Z,9.17
2022-08-31T13:03:54.039Z,6.53
2022-08-31T13:06:33.692Z,8.53
2022-08-31T13:09:02.105Z,6.53
2022-08-31T13:11:35.013Z,6.57
2022-08-31T13:14:24.709Z,5.43
2022-08-31T13:17:00.569Z,7.07
2022-08-31T13:19:31.971Z,6.90
2022-08-31T13:22:07.920Z,6.53
2022-08-31T13:24:41.360Z,7.13
2022-08-31T13:27:24.662Z,5.37
2022-08-31T13:29:53.548Z,5.17
2022-08-31T13:32:33.021Z,6.00
2022-08-31T13:35:14.256Z,5.37
2022-08-31T13:37:52.535Z,8.43
2022-08-31T13:40:24.911Z,5.47
2022-08-31T13:42:57.029Z,6.17
2022-08-31T13:45:33.971Z,6.20
2022-08-31T13:48:27.963Z,5.50
2022-08-31T13:51:07.124Z,5.37
2022-08-31T13:53:39.965Z,6.07
2022-08-31T13:56:57.662Z,6.47
2022-08-31T13:59:38.315Z,5.90
2022-08-31T14:02:19.598Z,5.60
2022-08-31T14:05:01.337Z,5.40
2022-08-31T14:07:33.763Z,5.57
2022-08-31T14:10:20.430Z,6.40
2022-08-31T14:13:02.636Z,5.97
2022-08-31T14:15:41.157Z,7.10
2022-08-31T14:18:33.800Z,6.50
2022-08-31T14:21:23.868Z,8.53
2022-08-31T14:24:09.119Z,7.70
2022-08-31T14:26:44.317Z,5.63
2022-08-31T14:29:15.008Z,6.80
2022-08-31T14:31:55.087Z,8.00
2022-08-31T14:34:24.852Z,5.43
2022-08-31T14:37:04.116Z,5.63
2022-08-31T14:39:32.929Z,5.60
2022-08-31T14:42:17.410Z,5.47
2022-08-31T14:44:53.737Z,5.60
2022-08-31T14:47:21.501Z,6.07
2022-08-31T14:49:49.168Z,7.73
2022-08-31T14:52:17.275Z,6.33
2022-08-31T14:54:46.019Z,5.63
2022-08-31T14:57:25.215Z,7.03
2022-08-31T14:59:59.769Z,7.90
2022-08-31T15:02:33.658Z,6.10
2022-08-31T15:05:07.632Z,6.93
2022-08-31T15:07:37.521Z,5.17
2022-08-31T15:10:06.838Z,5.40
2022-08-31T15:12:35.568Z,6.87
2022-08-31T15:15:02.688Z,5.57
2022-08-31T15:17:33.877Z,4.93
2022-08-31T15:20:03.525Z,5.87
2022-08-31T15:22:31.620Z,5.40
2022-08-31T15:24:58.781Z,6.00
2022-08-31T15:27:29.158Z,5.13
2022-08-31T15:29:59.270Z,5.33
2022-08-31T15:32:27.896Z,5.13
2022-08-31T15:34:58.166Z,5.70
2022-08-31T15:37:30.084Z,6.47
2022-08-31T15:40:04.045Z,6.10
2022-08-31T15:42:34.135Z,7.50
2022-08-31T15:45:01.171Z,5.80
2022-08-31T15:47:49.974Z,5.40
2022-08-31T15:50:19.034Z,6.57
2022-08-31T15:52:51.807Z,5.43
2022-08-31T15:55:23.563Z,5.13
2022-08-31T15:57:54.401Z,5.50
2022-08-31T16:00:23.805Z,5.40
2022-08-31T16:02:53.942Z,5.40
2022-08-31T16:05:22.037Z,6.30
2022-08-31T16:07:51.285Z,6.33
2022-08-31T16:10:20.329Z,5.20
2022-08-31T16:12:48.172Z,5.30
2022-08-31T16:15:15.814Z,5.33
2022-08-31T16:17:43.225Z,5.97
2022-08-31T16:20:12.855Z,5.33
2022-08-31T16:22:42.157Z,5.33
2022-08-31T16:25:11.647Z,5.17
2022-08-31T16:27:40.908Z,5.27
2022-08-31T16:30:10.225Z,5.53
2022-08-31T16:32:37.264Z,5.40
2022-08-31T16:35:05.740Z,5.30
2022-08-31T16:37:33.922Z,5.90
2022-08-31T16:40:01.105Z,8.10
2022-08-31T16:42:28.321Z,7.33
2022-08-31T16:44:59.821Z,6.57
2022-08-31T16:47:29.388Z,6.50
2022-08-31T16:49:59.054Z,5.10
2022-08-31T16:52:27.376Z,6.43
2022-08-31T16:54:59.426Z,5.80
2022-08-31T16:57:29.831Z,6.33
2022-08-31T16:59:58.559Z,6.17
2022-08-31T17:02:27.481Z,5.30
2022-08-31T17:04:55.282Z,5.37
2022-08-31T17:07:24.777Z,5.33
2022-08-31T17:09:57.725Z,6.23
2022-08-31T17:12:26.788Z,7.50
2022-08-31T17:14:53.770Z,4.57
2022-08-31T17:17:24.031Z,5.33
2022-08-31T17:19:54.185Z,5.60
2022-08-31T17:22:29.897Z,5.53
2022-08-31T17:25:03.016Z,7.27
2022-08-31T17:27:33.199Z,5.50
2022-08-31T17:30:06.033Z,5.77
2022-08-31T17:32:39.264Z,5.43
2022-08-31T17:35:17.779Z,5.80
2022-08-31T17:37:45.853Z,5.63
2022-08-31T17:40:14.487Z,5.13
2022-08-31T17:42:42.186Z,8.77
2022-08-31T17:45:09.784Z,5.57
2022-08-31T17:47:36.682Z,8.27
2022-08-31T17:50:04.658Z,11.67
2022-08-31T17:52:31.683Z,6.37
2022-08-31T17:55:00.397Z,9.37
2022-08-31T17:57:28.163Z,7.03
2022-08-31T17:59:56.093Z,7.37
2022-08-31T18:02:27.808Z,10.53
2022-08-31T18:04:54.883Z,8.73
2022-08-31T18:07:21.992Z,9.07
2022-08-31T18:09:49.044Z,9.50
2022-08-31T18:12:18.066Z,9.80
2022-08-31T18:14:45.022Z,10.80
2022-08-31T18:17:16.169Z,10.70
2022-08-31T18:19:44.645Z,8.53
2022-08-31T18:22:14.462Z,9.97
2022-08-31T18:24:42.871Z,8.50
2022-08-31T18:27:11.889Z,8.43
2022-08-31T18:29:39.427Z,7.70
2022-08-31T18:32:08.050Z,7.17
2022-08-31T18:34:39.127Z,9.13
2022-08-31T18:37:06.673Z,11.50
2022-08-31T18:40:00.030Z,7.70
2022-08-31T18:42:46.689Z,8.70
2022-08-31T18:45:18.636Z,6.93
2022-08-31T18:48:07.186Z,6.93
2022-08-31T18:50:37.151Z,7.43
2022-08-31T18:53:10.730Z,6.87
2022-08-31T18:55:38.448Z,5.93
2022-08-31T18:58:05.432Z,7.13
2022-08-31T19:00:33.196Z,9.13
2022-08-31T19:03:02.092Z,7.13
2022-08-31T19:05:29.832Z,6.30
2022-08-31T19:07:58.946Z,6.37
2022-08-31T19:10:26.542Z,6.33
2022-08-31T19:12:57.163Z,6.80
2022-08-31T19:15:33.584Z,7.13
2022-08-31T19:18:05.364Z,5.93
2022-08-31T19:20:35.208Z,6.10
2022-08-31T19:23:02.524Z,5.53
2022-08-31T19:25:30.270Z,6.93
2022-08-31T19:27:57.526Z,5.53
2022-08-31T19:30:28.088Z,5.00
2022-08-31T19:32:59.356Z,4.40
2022-08-31T19:35:27.382Z,8.23
2022-08-31T19:37:56.540Z,6.43
2022-08-31T19:40:42.980Z,5.20
2022-08-31T19:46:17.208Z,9.30
2022-08-31T19:48:45.589Z,4.73
2022-08-31T19:51:15.249Z,5.30
2022-08-31T19:53:45.533Z,4.73
2022-08-31T19:56:24.692Z,4.63
2022-08-31T19:58:56.609Z,3.70
2022-08-31T20:01:31.209Z,3.90
2022-08-31T20:03:58.383Z,4.10
2022-08-31T20:06:25.463Z,4.43
2022-08-31T20:08:53.611Z,4.30
2022-08-31T20:11:24.165Z,4.80
2022-08-31T20:13:51.556Z,3.80
2022-08-31T20:16:19.866Z,4.17
2022-08-31T20:18:48.617Z,4.33
2022-08-31T20:21:19.842Z,4.53
2022-08-31T20:23:48.966Z,4.40
2022-08-31T20:26:19.954Z,4.60
2022-08-31T20:28:48.212Z,5.50
2022-08-31T20:31:15.328Z,6.23
2022-08-31T20:33:47.044Z,5.47
2022-08-31T20:36:19.406Z,5.03
2022-08-31T20:39:02.164Z,5.03
2022-08-31T20:41:32.413Z,4.97
2022-08-31T20:44:00.958Z,5.47
2022-08-31T20:46:46.434Z,6.97
2022-08-31T20:49:26.246Z,9.17
2022-08-31T20:51:55.214Z,9.83
2022-08-31T20:54:25.821Z,8.67
2022-08-31T20:56:54.716Z,10.27
2022-08-31T20:59:23.715Z,8.43
2022-08-31T21:01:55.247Z,9.33
2022-08-31T21:04:23.435Z,8.70
2022-08-31T21:06:52.265Z,8.70
2022-08-31T21:09:21.052Z,9.20
2022-08-31T21:11:48.471Z,9.77
2022-08-31T21:14:18.190Z,11.20
2022-08-31T21:16:45.291Z,9.87
2022-08-31T21:19:15.163Z,12.43
2022-08-31T21:21:44.137Z,9.83
2022-08-31T21:24:13.368Z,9.70
2022-08-31T21:26:41.205Z,10.00
2022-08-31T21:29:14.608Z,11.80
2022-08-31T21:31:52.034Z,12.10
2022-08-31T21:34:25.993Z,12.70
2022-08-31T21:36:53.177Z,11.73
2022-08-31T21:39:21.340Z,11.60
2022-08-31T21:41:50.647Z,11.93
2022-08-31T21:44:20.986Z,9.93
2022-08-31T21:46:50.825Z,10.83
2022-08-31T21:49:19.248Z,10.87
2022-08-31T21:51:52.586Z,11.07
2022-08-31T21:54:23.078Z,11.30
2022-08-31T21:57:02.373Z,13.03
2022-08-31T21:59:34.983Z,11.27
2022-08-31T22:02:06.532Z,12.27
2022-08-31T22:04:37.780Z,11.20
2022-08-31T22:07:06.413Z,11.63
2022-08-31T22:09:35.158Z,11.97
2022-08-31T22:12:06.531Z,11.10
2022-08-31T22:14:37.373Z,10.27
2022-08-31T22:17:07.161Z,10.30
2022-08-31T22:19:38.961Z,9.97
2022-08-31T22:22:11.715Z,10.37
2022-08-31T22:24:40.606Z,9.53
2022-08-31T22:27:09.910Z,11.63
2022-08-31T22:29:38.213Z,12.50
2022-08-31T22:32:12.111Z,14.33
2022-08-31T22:34:39.982Z,13.20
2022-08-31T22:37:08.248Z,14.57
2022-08-31T22:39:35.970Z,16.33
2022-08-31T22:42:03.177Z,16.60
2022-08-31T22:44:34.287Z,14.73
2022-08-31T22:47:02.846Z,17.27
2022-08-31T22:49:29.866Z,16.50
2022-08-31T22:51:57.805Z,18.73
2022-08-31T22:54:25.698Z,16.57
2022-08-31T22:56:53.781Z,18.03
2022-08-31T22:59:27.372Z,14.93
2022-08-31T23:01:59.271Z,16.83
2022-08-31T23:04:28.263Z,16.73
2022-08-31T23:06:57.520Z,18.50
2022-08-31T23:09:27.944Z,16.73
2022-08-31T23:11:56.415Z,17.77
2022-08-31T23:14:23.866Z,15.73
2022-08-31T23:16:57.116Z,14.53
2022-08-31T23:19:33.069Z,15.93
2022-08-31T23:22:01.637Z,14.97
2022-08-31T23:24:48.985Z,14.73
2022-08-31T23:27:19.442Z,15.03
2022-08-31T23:29:51.473Z,13.90
2022-08-31T23:32:21.445Z,14.77
2022-08-31T23:34:51.028Z,13.87
2022-08-31T23:37:19.130Z,14.03
2022-08-31T23:39:46.743Z,13.73
2022-08-31T23:42:16.577Z,14.50
2022-08-31T23:44:45.943Z,14.87
2022-08-31T23:47:15.823Z,14.47
2022-08-31T23:49:45.667Z,15.10
2022-08-31T23:52:18.635Z,13.80
2022-08-31T23:54:46.844Z,13.50
2022-08-31T23:57:31.347Z,14.23
